createdAt,value
2023-08-07T00:00:33.219Z,18.08
2023-08-07T00:03:01.534Z,17.73
2023-08-07T00:05:31.175Z,17.50
2023-08-07T00:07:59.427Z,17.91
2023-08-07T00:10:28.066Z,18.10
2023-08-07T00:12:56.340Z,17.87
2023-08-07T00:15:24.675Z,17.89
2023-08-07T00:17:53.285Z,18.03
2023-08-07T00:20:21.842Z,17.90
2023-08-07T00:22:50.078Z,17.75
2023-08-07T00:25:18.460Z,17.58
2023-08-07T00:27:46.717Z,17.84
2023-08-07T00:30:15.910Z,17.98
2023-08-07T00:32:44.255Z,18.21
2023-08-07T00:35:12.554Z,18.02
2023-08-07T00:37:40.870Z,17.77
2023-08-07T00:40:09.790Z,18.06
2023-08-07T00:42:39.268Z,18.31
2023-08-07T00:45:08.296Z,18.30
2023-08-07T00:47:36.636Z,18.48
2023-08-07T00:50:06.187Z,18.36
2023-08-07T00:52:34.743Z,18.21
2023-08-07T00:55:03.920Z,18.34
2023-08-07T00:57:32.536Z,18.01
2023-08-07T01:00:01.492Z,18.31
2023-08-07T01:02:29.913Z,18.47
2023-08-07T01:04:58.288Z,18.23
2023-08-07T01:07:26.593Z,17.97
2023-08-07T01:09:54.931Z,18.12
2023-08-07T01:12:31.400Z,18.29
2023-08-07T01:15:14.127Z,18.16
2023-08-07T01:17:45.149Z,18.38
2023-08-07T01:20:13.871Z,18.19
2023-08-07T01:22:42.108Z,18.11
2023-08-07T01:25:10.562Z,18.16
2023-08-07T01:28:39.639Z,18.38
2023-08-07T01:31:12.641Z,18.31
2023-08-07T01:34:02.578Z,18.27
2023-08-07T01:36:31.838Z,18.43
2023-08-07T01:39:02.964Z,18.40
2023-08-07T01:41:32.353Z,18.42
2023-08-07T01:44:00.703Z,18.39
2023-08-07T01:46:29.286Z,18.32
2023-08-07T01:48:57.624Z,18.24
2023-08-07T01:51:25.933Z,18.18
2023-08-07T01:53:54.293Z,18.30
2023-08-07T01:56:22.664Z,18.10
2023-08-07T01:58:51.017Z,18.32
2023-08-07T02:01:19.298Z,18.16
2023-08-07T02:03:47.598Z,18.10
2023-08-07T02:06:15.915Z,17.99
2023-08-07T02:08:44.146Z,18.10
2023-08-07T02:11:14.105Z,18.20
2023-08-07T02:13:42.389Z,18.21
2023-08-07T02:16:10.708Z,18.46
2023-08-07T02:18:39.089Z,18.49
2023-08-07T02:21:07.330Z,18.24
2023-08-07T02:23:37.296Z,18.28
2023-08-07T02:26:05.547Z,18.13
2023-08-07T02:28:34.098Z,18.19
2023-08-07T02:31:03.392Z,18.39
2023-08-07T02:33:31.700Z,18.46
2023-08-07T02:36:01.518Z,18.48
2023-08-07T02:38:29.924Z,18.45
2023-08-07T02:40:58.231Z,18.32
2023-08-07T02:43:28.160Z,18.10
2023-08-07T02:45:56.504Z,17.98
2023-08-07T02:48:25.000Z,18.11
2023-08-07T02:50:54.262Z,18.45
2023-08-07T02:53:22.537Z,18.30
2023-08-07T02:55:51.197Z,18.34
2023-08-07T02:58:19.584Z,18.03
2023-08-07T03:00:47.839Z,18.20
2023-08-07T03:03:16.259Z,18.41
2023-08-07T03:05:53.705Z,18.33
2023-08-07T03:08:21.993Z,18.23
2023-08-07T03:10:58.648Z,18.14
2023-08-07T03:13:27.849Z,18.42
2023-08-07T03:16:07.204Z,18.19
2023-08-07T03:18:35.725Z,18.13
2023-08-07T03:21:04.458Z,18.22
2023-08-07T03:23:32.727Z,18.18
2023-08-07T03:28:42.427Z,18.26
2023-08-07T03:31:10.860Z,18.41
2023-08-07T03:33:39.843Z,18.53
2023-08-07T03:36:08.484Z,18.41
2023-08-07T03:38:36.914Z,18.19
2023-08-07T03:41:05.654Z,18.11
2023-08-07T03:43:34.712Z,18.53
2023-08-07T03:46:04.165Z,18.48
2023-08-07T03:48:33.131Z,18.56
2023-08-07T03:51:10.625Z,18.40
2023-08-07T03:53:50.161Z,18.31
2023-08-07T03:56:18.501Z,18.06
2023-08-07T03:58:46.904Z,18.30
2023-08-07T04:01:15.613Z,18.33
2023-08-07T04:03:44.049Z,18.57
2023-08-07T04:06:16.832Z,18.45
2023-08-07T04:08:47.016Z,18.13
2023-08-07T04:11:15.529Z,18.16
2023-08-07T04:13:44.049Z,18.36
2023-08-07T04:16:12.381Z,18.33
2023-08-07T04:18:40.671Z,18.47
2023-08-07T04:21:09.247Z,18.26
2023-08-07T04:23:37.555Z,18.23
2023-08-07T04:26:05.910Z,18.21
2023-08-07T04:28:34.160Z,18.06
2023-08-07T04:31:03.671Z,18.16
2023-08-07T04:33:31.977Z,17.85
2023-08-07T04:36:00.306Z,17.98
2023-08-07T04:38:28.580Z,18.30
2023-08-07T04:40:56.891Z,18.27
2023-08-07T04:43:25.165Z,18.35
2023-08-07T04:45:54.200Z,18.17
2023-08-07T04:48:26.045Z,18.39
2023-08-07T04:50:54.373Z,18.15
2023-08-07T04:53:22.668Z,18.22
2023-08-07T04:55:51.000Z,18.27
2023-08-07T04:58:19.434Z,18.49
2023-08-07T05:00:48.133Z,18.09
2023-08-07T05:03:16.798Z,18.35
2023-08-07T05:05:45.191Z,18.59
2023-08-07T05:08:13.436Z,18.73
2023-08-07T05:10:41.718Z,18.59
2023-08-07T05:13:10.043Z,18.32
2023-08-07T05:15:38.297Z,18.42
2023-08-07T05:18:06.710Z,18.38
2023-08-07T05:20:34.977Z,18.30
2023-08-07T05:23:03.212Z,18.42
2023-08-07T05:25:31.466Z,18.29
2023-08-07T05:27:59.760Z,18.02
2023-08-07T05:30:28.099Z,18.39
2023-08-07T05:32:56.610Z,18.57
2023-08-07T05:35:25.140Z,18.07
2023-08-07T05:37:53.379Z,18.36
2023-08-07T05:40:21.735Z,18.08
2023-08-07T05:42:50.111Z,18.52
2023-08-07T05:45:18.490Z,18.51
2023-08-07T05:47:47.040Z,18.31
2023-08-07T05:50:15.421Z,18.64
2023-08-07T05:52:44.438Z,18.64
2023-08-07T05:55:12.664Z,18.55
2023-08-07T05:57:40.919Z,18.56
2023-08-07T06:00:15.071Z,18.65
2023-08-07T06:02:43.523Z,18.85
2023-08-07T06:05:14.699Z,18.93
2023-08-07T06:07:43.265Z,18.83
2023-08-07T06:10:11.783Z,19.07
2023-08-07T06:12:40.082Z,18.91
2023-08-07T06:15:09.293Z,18.95
2023-08-07T06:17:37.614Z,18.99
2023-08-07T06:20:11.737Z,19.38
2023-08-07T06:22:41.672Z,18.93
2023-08-07T06:25:10.294Z,18.89
2023-08-07T06:27:38.628Z,18.74
2023-08-07T06:30:07.840Z,19.05
2023-08-07T06:32:37.745Z,19.05
2023-08-07T06:35:06.638Z,18.72
2023-08-07T06:37:34.973Z,19.01
2023-08-07T06:40:03.743Z,18.89
2023-08-07T06:42:32.016Z,18.78
2023-08-07T06:45:00.340Z,18.77
2023-08-07T06:47:28.677Z,19.06
2023-08-07T06:49:57.044Z,19.10
2023-08-07T06:52:25.341Z,19.07
2023-08-07T06:54:53.692Z,18.95
2023-08-07T06:57:21.978Z,19.11
2023-08-07T06:59:50.199Z,19.16
2023-08-07T07:02:18.576Z,19.05
2023-08-07T07:04:46.877Z,18.97
2023-08-07T07:07:16.144Z,18.95
2023-08-07T07:09:44.454Z,18.79
2023-08-07T07:12:12.801Z,19.16
2023-08-07T07:14:41.079Z,19.69
2023-08-07T07:17:09.353Z,19.79
2023-08-07T07:19:37.656Z,19.62
2023-08-07T07:22:06.219Z,19.58
2023-08-07T07:24:34.518Z,19.45
2023-08-07T07:27:02.948Z,19.69
2023-08-07T07:29:31.299Z,19.84
2023-08-07T07:32:00.379Z,19.88
2023-08-07T07:34:29.304Z,19.97
2023-08-07T07:36:57.600Z,19.61
2023-08-07T07:39:26.926Z,19.53
2023-08-07T07:41:55.411Z,19.19
2023-08-07T07:44:23.877Z,19.66
2023-08-07T07:46:52.122Z,20.01
2023-08-07T07:49:20.358Z,20.39
2023-08-07T07:51:49.816Z,20.31
2023-08-07T07:54:18.123Z,20.55
2023-08-07T07:56:46.372Z,20.30
2023-08-07T07:59:14.865Z,20.54
2023-08-07T08:01:43.260Z,20.71
2023-08-07T08:04:11.778Z,21.06
2023-08-07T08:06:41.778Z,21.21
2023-08-07T08:09:11.021Z,21.20
2023-08-07T08:11:39.540Z,21.14
2023-08-07T08:14:07.870Z,21.21
2023-08-07T08:16:36.146Z,21.16
2023-08-07T08:19:04.755Z,20.85
2023-08-07T08:21:33.116Z,20.96
2023-08-07T08:24:01.479Z,21.20
2023-08-07T08:26:29.824Z,21.62
2023-08-07T08:28:58.088Z,21.44
2023-08-07T08:31:26.482Z,21.29
2023-08-07T08:33:54.820Z,21.18
2023-08-07T08:36:23.130Z,21.46
2023-08-07T08:38:52.782Z,21.64
2023-08-07T08:41:21.881Z,20.96
2023-08-07T08:43:54.183Z,21.05
2023-08-07T08:46:23.109Z,21.53
2023-08-07T08:48:53.414Z,21.50
2023-08-07T08:51:23.001Z,21.65
2023-08-07T08:53:57.607Z,21.43
2023-08-07T08:56:26.427Z,21.48
2023-08-07T08:58:54.842Z,21.09
2023-08-07T09:01:26.378Z,21.17
2023-08-07T09:03:57.313Z,21.08
2023-08-07T09:06:27.087Z,21.22
2023-08-07T09:08:56.518Z,21.32
2023-08-07T09:11:25.147Z,20.80
2023-08-07T09:13:56.631Z,20.69
2023-08-07T09:16:27.719Z,20.87
2023-08-07T09:18:56.511Z,20.85
2023-08-07T09:21:25.291Z,21.12
2023-08-07T09:23:53.528Z,21.49
2023-08-07T09:26:27.878Z,21.23
2023-08-07T09:28:56.332Z,20.82
2023-08-07T09:31:27.545Z,21.43
2023-08-07T09:33:55.978Z,20.46
2023-08-07T09:36:25.558Z,20.82
2023-08-07T09:38:53.969Z,21.36
2023-08-07T09:41:24.652Z,21.94
2023-08-07T09:43:52.901Z,21.62
2023-08-07T09:46:21.383Z,22.10
2023-08-07T09:48:49.644Z,22.42
2023-08-07T09:51:17.927Z,22.55
2023-08-07T09:53:48.052Z,23.32
2023-08-07T09:56:20.526Z,24.10
2023-08-07T09:58:50.138Z,23.47
2023-08-07T10:01:18.762Z,22.83
2023-08-07T10:03:47.447Z,22.26
2023-08-07T10:06:16.339Z,21.86
2023-08-07T10:08:46.103Z,21.56
2023-08-07T10:11:17.994Z,21.06
2023-08-07T10:13:47.414Z,21.30
2023-08-07T10:16:16.203Z,21.63
2023-08-07T10:18:44.596Z,21.50
2023-08-07T10:21:13.529Z,21.98
2023-08-07T10:23:42.143Z,21.78
2023-08-07T10:26:11.860Z,21.57
2023-08-07T10:28:41.674Z,21.18
2023-08-07T10:31:11.211Z,21.30
2023-08-07T10:33:40.122Z,20.52
2023-08-07T10:36:12.239Z,20.34
2023-08-07T10:38:40.677Z,20.41
2023-08-07T10:41:15.189Z,19.54
2023-08-07T10:43:45.909Z,19.41
2023-08-07T10:46:24.315Z,19.34
2023-08-07T10:49:00.643Z,19.83
2023-08-07T10:51:32.524Z,20.06
2023-08-07T10:54:02.646Z,19.91
2023-08-07T10:56:38.681Z,20.38
2023-08-07T10:59:12.221Z,19.83
2023-08-07T11:01:43.563Z,20.21
2023-08-07T11:04:15.903Z,21.26
2023-08-07T11:06:49.105Z,21.76
2023-08-07T11:09:17.362Z,22.41
2023-08-07T11:11:50.207Z,22.32
2023-08-07T11:14:20.297Z,22.81
2023-08-07T11:16:50.056Z,22.69
2023-08-07T11:19:20.879Z,23.28
2023-08-07T11:21:51.771Z,23.58
2023-08-07T11:24:22.281Z,24.32
2023-08-07T11:26:51.954Z,25.43
2023-08-07T11:29:20.762Z,25.82
2023-08-07T11:31:49.467Z,26.50
2023-08-07T11:34:22.328Z,25.76
2023-08-07T11:36:50.683Z,25.21
2023-08-07T11:39:20.662Z,24.68
2023-08-07T11:41:53.436Z,25.81
2023-08-07T11:44:21.784Z,26.58
2023-08-07T11:46:51.992Z,27.14
2023-08-07T11:49:21.242Z,27.85
2023-08-07T11:51:50.940Z,-149.27
2023-08-07T11:54:19.414Z,-149.27
2023-08-07T11:56:47.836Z,-149.27
2023-08-07T11:59:19.796Z,27.31
2023-08-07T12:01:48.459Z,27.37
2023-08-07T12:04:19.276Z,26.51
2023-08-07T12:06:58.604Z,26.21
2023-08-07T12:09:30.375Z,24.50
2023-08-07T12:12:01.344Z,24.10
2023-08-07T12:14:31.643Z,23.27
2023-08-07T12:17:02.688Z,-149.27
2023-08-07T12:19:39.110Z,-149.27
2023-08-07T12:22:09.551Z,-149.27
2023-08-07T12:24:38.376Z,-149.27
2023-08-07T12:27:08.468Z,-149.27
2023-08-07T12:29:36.892Z,-149.27
2023-08-07T12:32:06.645Z,-149.27
2023-08-07T12:34:35.848Z,-149.27
2023-08-07T12:37:05.709Z,-149.27
2023-08-07T12:44:37.618Z,-149.27
2023-08-07T12:47:06.818Z,-149.27
2023-08-07T12:49:35.172Z,-149.27
2023-08-07T12:52:04.902Z,-149.27
2023-08-07T12:54:33.391Z,-149.27
2023-08-07T12:57:01.736Z,-149.27
2023-08-07T12:59:30.059Z,-149.27
2023-08-07T13:01:58.408Z,-149.27
2023-08-07T13:04:27.736Z,-149.27
2023-08-07T13:06:56.647Z,-149.27
2023-08-07T13:09:25.680Z,-149.27
2023-08-07T13:11:54.125Z,-149.27
2023-08-07T13:14:23.838Z,-149.27
2023-08-07T13:16:52.565Z,-149.27
2023-08-07T13:19:21.013Z,-149.27
2023-08-07T13:21:49.532Z,-149.27
2023-08-07T13:24:19.125Z,-149.27
2023-08-07T13:26:47.560Z,-149.27
2023-08-07T13:29:16.447Z,-149.27
2023-08-07T13:31:47.469Z,-149.27
2023-08-07T13:34:15.865Z,-149.27
2023-08-07T13:36:44.206Z,-149.27
2023-08-07T13:39:12.666Z,-149.27
2023-08-07T13:41:41.031Z,-149.27
2023-08-07T13:44:09.386Z,-149.27
2023-08-07T13:46:38.293Z,-149.27
2023-08-07T13:49:06.699Z,-149.27
2023-08-07T13:51:34.980Z,-149.27
2023-08-07T13:54:04.319Z,-149.27
2023-08-07T13:56:33.855Z,-149.27
2023-08-07T13:59:02.239Z,-149.27
2023-08-07T14:01:30.683Z,-149.27
2023-08-07T14:03:59.107Z,-149.27
2023-08-07T14:06:28.827Z,-149.27
2023-08-07T14:08:57.299Z,-149.27
2023-08-07T14:11:31.117Z,-149.27
2023-08-07T14:13:59.587Z,-149.27
2023-08-07T14:16:27.877Z,-149.27
2023-08-07T14:18:56.860Z,-149.27
2023-08-07T14:21:25.414Z,-149.27
2023-08-07T14:23:53.812Z,-149.27
2023-08-07T14:26:22.305Z,-149.27
2023-08-07T14:28:50.674Z,-149.27
2023-08-07T14:31:18.989Z,-149.27
2023-08-07T14:33:47.321Z,-149.27
2023-08-07T14:36:16.117Z,-149.27
2023-08-07T14:38:44.436Z,-149.27
2023-08-07T14:41:12.779Z,-149.27
2023-08-07T14:43:41.155Z,-149.27
2023-08-07T14:46:09.453Z,-149.27
2023-08-07T14:48:37.876Z,-149.27
2023-08-07T14:51:06.823Z,-149.27
2023-08-07T14:53:36.655Z,-149.27
2023-08-07T14:56:05.128Z,-149.27
2023-08-07T14:58:33.839Z,-149.27
2023-08-07T15:01:02.156Z,-149.27
2023-08-07T15:03:30.563Z,-149.27
2023-08-07T15:05:58.963Z,-149.27
2023-08-07T15:08:27.382Z,-149.27
2023-08-07T15:10:55.682Z,-149.27
2023-08-07T15:13:24.049Z,-149.27
2023-08-07T15:15:52.330Z,-149.27
2023-08-07T15:18:20.744Z,-149.27
2023-08-07T15:20:50.123Z,-149.27
2023-08-07T15:23:18.932Z,-149.27
2023-08-07T15:25:47.281Z,-149.27
2023-08-07T15:28:15.629Z,-149.27
2023-08-07T15:30:52.009Z,-149.27
2023-08-07T15:33:24.429Z,-149.27
2023-08-07T15:35:55.943Z,-149.27
2023-08-07T15:38:27.220Z,-149.27
2023-08-07T15:40:56.759Z,-149.27
2023-08-07T15:43:25.089Z,-149.27
2023-08-07T15:45:54.063Z,-149.27
2023-08-07T15:48:23.016Z,-149.27
2023-08-07T15:50:51.593Z,-149.27
2023-08-07T15:53:20.193Z,-149.27
2023-08-07T15:55:48.730Z,-149.27
2023-08-07T15:58:19.230Z,-149.27
2023-08-07T16:00:47.695Z,-149.27
2023-08-07T16:03:18.369Z,-149.27
2023-08-07T16:05:48.068Z,-149.27
2023-08-07T16:08:16.716Z,-149.27
2023-08-07T16:10:47.078Z,-149.27
2023-08-07T16:13:15.675Z,-149.27
2023-08-07T16:15:44.236Z,-149.27
2023-08-07T16:18:12.528Z,-149.27
2023-08-07T16:20:40.931Z,-149.27
2023-08-07T16:23:09.259Z,-149.27
2023-08-07T16:25:37.692Z,-149.27
2023-08-07T16:28:06.655Z,-149.27
2023-08-07T16:30:35.059Z,-149.27
2023-08-07T16:33:03.538Z,-149.27
2023-08-07T16:35:31.885Z,-149.27
2023-08-07T16:38:00.399Z,-149.27
2023-08-07T16:40:29.890Z,-149.27
2023-08-07T16:42:58.326Z,-149.27
2023-08-07T16:45:27.727Z,-149.27
2023-08-07T16:48:01.510Z,-149.27
2023-08-07T16:50:30.101Z,-149.27
2023-08-07T16:53:00.727Z,-149.27
2023-08-07T16:55:29.138Z,-149.27
2023-08-07T16:57:57.755Z,-149.27
2023-08-07T17:00:26.307Z,-149.27
2023-08-07T17:02:54.762Z,-149.27
2023-08-07T17:05:24.405Z,-149.27
2023-08-07T17:07:52.757Z,-149.27
2023-08-07T17:10:21.505Z,-149.27
2023-08-07T17:12:49.842Z,-149.27
2023-08-07T17:15:19.021Z,-149.27
2023-08-07T17:17:47.304Z,-149.27
2023-08-07T17:20:15.593Z,-149.27
2023-08-07T17:22:44.025Z,-149.27
2023-08-07T17:25:12.530Z,-149.27
2023-08-07T17:27:40.838Z,-149.27
2023-08-07T17:30:09.798Z,-149.27
2023-08-07T17:32:38.398Z,-149.27
2023-08-07T17:35:07.809Z,-149.27
2023-08-07T17:37:36.129Z,-149.27
2023-08-07T17:40:05.944Z,-149.27
2023-08-07T17:42:34.253Z,-149.27
2023-08-07T17:45:03.318Z,-149.27
2023-08-07T17:47:31.797Z,-149.27
2023-08-07T17:50:00.344Z,-149.27
2023-08-07T17:52:30.771Z,-149.27
2023-08-07T17:54:59.156Z,-149.27
2023-08-07T17:57:27.686Z,-149.27
2023-08-07T17:59:55.985Z,-149.27
2023-08-07T18:02:25.428Z,-149.27
2023-08-07T18:04:53.927Z,-149.27
2023-08-07T18:07:22.278Z,-149.27
2023-08-07T18:09:50.681Z,-149.27
2023-08-07T18:12:18.964Z,-149.27
2023-08-07T18:14:47.256Z,-149.27
2023-08-07T18:17:15.793Z,-149.27
2023-08-07T18:19:44.262Z,-149.27
2023-08-07T18:22:12.687Z,-149.27
2023-08-07T18:24:41.786Z,-149.27
2023-08-07T18:27:10.942Z,-149.27
2023-08-07T18:29:40.153Z,-149.27
2023-08-07T18:32:08.718Z,-149.27
2023-08-07T18:34:37.165Z,-149.27
2023-08-07T18:37:05.701Z,-149.27
2023-08-07T18:39:34.038Z,-149.27
2023-08-07T18:42:02.517Z,-149.27
2023-08-07T18:44:31.210Z,-149.27
2023-08-07T18:46:59.940Z,-149.27
2023-08-07T18:49:28.759Z,-149.27
2023-08-07T18:51:57.185Z,-149.27
2023-08-07T18:54:25.565Z,-149.27
2023-08-07T18:56:53.929Z,-149.27
2023-08-07T18:59:23.322Z,-149.27
2023-08-07T19:01:51.922Z,-149.27
2023-08-07T19:04:20.401Z,-149.27
2023-08-07T19:06:48.705Z,-149.27
2023-08-07T19:09:18.023Z,-149.27
2023-08-07T19:11:46.289Z,-149.27
2023-08-07T19:14:14.650Z,-149.27
2023-08-07T19:16:46.195Z,-149.27
2023-08-07T19:19:15.971Z,-149.27
2023-08-07T19:21:44.327Z,-149.27
2023-08-07T19:24:12.919Z,-149.27
2023-08-07T19:26:41.377Z,-149.27
2023-08-07T19:29:10.396Z,-149.27
2023-08-07T19:31:38.766Z,-149.27
2023-08-07T19:34:10.752Z,-149.27
2023-08-07T19:36:41.263Z,-149.27
2023-08-07T19:39:09.656Z,-149.27
2023-08-07T19:41:38.057Z,-149.27
2023-08-07T19:44:06.349Z,-149.27
2023-08-07T19:46:34.738Z,-149.27
2023-08-07T19:49:03.134Z,-149.27
2023-08-07T19:51:33.180Z,-149.27
2023-08-07T19:54:02.415Z,-149.27
2023-08-07T19:56:34.404Z,-149.27
2023-08-07T19:59:06.085Z,-149.27
2023-08-07T20:01:34.776Z,-149.27
2023-08-07T20:04:03.441Z,-149.27
2023-08-07T20:06:38.377Z,-149.27
2023-08-07T20:09:06.906Z,-149.27
2023-08-07T20:11:38.931Z,-149.27
2023-08-07T20:14:07.407Z,-149.27
2023-08-07T20:16:35.838Z,-149.27
2023-08-07T20:19:04.189Z,-149.27
2023-08-07T20:21:32.484Z,-149.27
2023-08-07T20:24:00.809Z,-149.27
2023-08-07T20:26:31.689Z,-149.27
2023-08-07T20:29:00.781Z,-149.27
2023-08-07T20:31:29.086Z,-149.27
2023-08-07T20:33:59.503Z,-149.27
2023-08-07T20:36:31.509Z,-149.27
2023-08-07T20:38:59.944Z,-149.27
2023-08-07T20:41:28.265Z,-149.27
2023-08-07T20:43:56.546Z,-149.27
2023-08-07T20:46:25.464Z,-149.27
2023-08-07T20:48:53.917Z,-149.27
2023-08-07T20:51:22.238Z,-149.27
2023-08-07T20:53:50.705Z,-149.27
2023-08-07T20:56:20.023Z,-149.27
2023-08-07T20:58:48.274Z,-149.27
2023-08-07T21:01:16.592Z,-149.27
2023-08-07T21:03:44.907Z,-149.27
2023-08-07T21:06:13.212Z,-149.27
2023-08-07T21:08:41.498Z,-149.27
2023-08-07T21:11:09.825Z,-149.27
2023-08-07T21:13:39.563Z,-149.27
2023-08-07T21:16:08.007Z,-149.27
2023-08-07T21:18:36.298Z,-149.27
2023-08-07T21:21:04.584Z,-149.27
2023-08-07T21:23:34.215Z,-149.27
2023-08-07T21:26:04.253Z,-149.27
2023-08-07T21:28:34.709Z,-149.27
2023-08-07T21:31:04.030Z,-149.27
2023-08-07T21:33:32.442Z,-149.27
2023-08-07T21:36:00.905Z,-149.27
2023-08-07T21:38:29.149Z,-149.27
2023-08-07T21:40:57.448Z,-149.27
2023-08-07T21:43:26.584Z,-149.27
2023-08-07T21:45:55.033Z,-149.27
2023-08-07T21:48:23.383Z,-149.27
2023-08-07T21:50:51.646Z,-149.27
2023-08-07T21:53:19.938Z,-149.27
2023-08-07T21:55:48.214Z,-149.27
2023-08-07T21:58:16.584Z,-149.27
2023-08-07T22:00:47.630Z,-149.27
2023-08-07T22:03:15.464Z,-149.27
2023-08-07T22:05:43.831Z,-149.27
2023-08-07T22:08:12.129Z,-149.27
2023-08-07T22:10:40.527Z,-149.27
2023-08-07T22:13:08.823Z,-149.27
2023-08-07T22:15:37.125Z,-149.27
2023-08-07T22:18:05.834Z,-149.27
2023-08-07T22:20:34.306Z,-149.27
2023-08-07T22:23:02.563Z,-149.27
2023-08-07T22:25:30.988Z,-149.27
2023-08-07T22:27:59.282Z,-149.27
2023-08-07T22:30:27.649Z,-149.27
2023-08-07T22:32:55.951Z,-149.27
2023-08-07T22:35:25.146Z,-149.27
2023-08-07T22:37:53.460Z,-149.27
2023-08-07T22:40:21.873Z,-149.27
2023-08-07T22:42:50.233Z,-149.27
2023-08-07T22:45:18.635Z,-149.27
2023-08-07T22:47:47.007Z,-149.27
2023-08-07T22:50:15.547Z,-149.27
2023-08-07T22:52:43.921Z,-149.27
2023-08-07T22:55:12.448Z,-149.27
2023-08-07T22:57:40.794Z,-149.27
2023-08-07T23:00:11.339Z,-149.27
2023-08-07T23:02:40.476Z,-149.27
2023-08-07T23:05:11.971Z,-149.27
2023-08-07T23:07:40.566Z,-149.27
2023-08-07T23:10:09.460Z,-149.27
2023-08-07T23:12:37.776Z,-149.27
2023-08-07T23:15:06.723Z,-149.27
2023-08-07T23:17:35.017Z,-149.27
2023-08-07T23:20:03.538Z,-149.27
2023-08-07T23:22:31.849Z,-149.27
2023-08-07T23:25:01.406Z,-149.27
2023-08-07T23:27:29.706Z,-149.27
2023-08-07T23:29:58.001Z,-149.27
2023-08-07T23:32:26.377Z,-149.27
2023-08-07T23:34:54.718Z,-149.27
2023-08-07T23:37:23.069Z,-149.27
2023-08-07T23:39:51.317Z,-149.27
2023-08-07T23:42:19.640Z,-149.27
2023-08-07T23:44:47.918Z,-149.27
2023-08-07T23:47:16.212Z,-149.27
2023-08-07T23:49:44.558Z,-149.27
2023-08-07T23:52:12.940Z,-149.27
2023-08-07T23:54:41.278Z,-149.27
2023-08-07T23:57:09.726Z,-149.27
2023-08-07T23:59:38.069Z,-149.27
